Time;durP1;ratioP1;P1;durP2;ratioP2;P2;SDS_P1;SDS_P2;PMS_P1;PMS_P2;Temp;Humidity;BMP_temperature;BMP_pressure;BME280_temperature;BME280_humidity;BME280_pressure;Samples;Min_cycle;Max_cycle;Signal;HPM_P1;HPM_P2
2024/04/10 00:01:50;;;;;;;5.03;1.08;;;16.90;71.30;;;;;;4501401;26;20013;-41
2024/04/10 00:04:33;;;;;;;5.38;0.80;;;16.90;71.50;;;;;;4500833;26;20452;-41
2024/04/10 00:07:14;;;;;;;6.50;1.20;;;16.90;71.00;;;;;;4501317;26;20047;-42
2024/04/10 00:09:59;;;;;;;6.07;1.00;;;16.90;71.00;;;;;;4517394;26;20313;-41
2024/04/10 00:12:39;;;;;;;6.13;1.23;;;16.90;70.90;;;;;;4528564;26;20052;-41
2024/04/10 00:15:22;;;;;;;3.67;1.05;;;16.90;70.70;;;;;;4500850;26;20071;-41
2024/04/10 00:18:03;;;;;;;2.42;0.80;;;16.90;71.90;;;;;;4516838;26;20017;-41
2024/04/10 00:20:49;;;;;;;3.47;0.80;;;16.80;71.10;;;;;;4531369;26;20042;-42
2024/04/10 00:23:30;;;;;;;4.63;0.85;;;16.80;71.30;;;;;;4530785;26;20278;-41
2024/04/10 00:26:15;;;;;;;5.75;1.10;;;16.80;71.50;;;;;;4524975;26;20020;-42
2024/04/10 00:28:55;;;;;;;3.65;0.60;;;16.80;71.40;;;;;;4500469;26;20014;-41
2024/04/10 00:31:38;;;;;;;3.88;0.73;;;16.80;71.50;;;;;;4521438;26;20018;-41
2024/04/10 00:34:19;;;;;;;3.72;0.77;;;16.80;71.70;;;;;;4500908;26;20017;-41
2024/04/10 00:37:02;;;;;;;5.35;1.15;;;16.80;71.80;;;;;;4479037;26;20477;-48
2024/04/10 00:39:42;;;;;;;3.17;1.10;;;16.80;71.80;;;;;;4500570;26;20014;-47
2024/04/10 00:42:29;;;;;;;3.47;1.10;;;16.80;71.80;;;;;;4500355;26;20014;-46
2024/04/10 00:45:09;;;;;;;2.97;0.90;;;16.80;71.70;;;;;;4479212;26;20013;-50
2024/04/10 00:47:52;;;;;;;6.55;1.42;;;16.80;71.70;;;;;;4515451;26;20016;-47
2024/04/10 00:50:32;;;;;;;2.45;0.63;;;16.80;71.80;;;;;;4500203;26;20016;-47
2024/04/10 00:53:15;;;;;;;4.00;1.10;;;16.80;71.70;;;;;;4500748;26;20387;-48
2024/04/10 00:55:56;;;;;;;3.35;0.98;;;16.80;71.70;;;;;;4500255;26;20079;-49
2024/04/10 00:58:41;;;;;;;2.13;0.60;;;16.80;71.80;;;;;;4500270;26;20013;-47
2024/04/10 01:01:22;;;;;;;2.90;0.80;;;16.80;71.90;;;;;;4511623;26;20441;-47
2024/04/10 01:04:05;;;;;;;2.28;0.85;;;16.70;71.90;;;;;;4527930;26;20016;-47
2024/04/10 01:06:45;;;;;;;6.88;1.20;;;16.80;71.70;;;;;;4520828;26;20394;-49
2024/04/10 01:09:28;;;;;;;2.15;0.75;;;16.80;71.80;;;;;;4527581;26;20017;-47
2024/04/10 01:12:08;;;;;;;3.58;1.00;;;16.80;71.80;;;;;;4530246;26;20363;-50
2024/04/10 01:14:54;;;;;;;3.45;0.70;;;16.80;71.70;;;;;;4529975;26;20005;-48
2024/04/10 01:17:34;;;;;;;4.40;0.82;;;16.80;71.50;;;;;;4532822;25;20369;-48
2024/04/10 01:20:16;;;;;;;4.32;0.47;;;16.80;71.90;;;;;;4531385;26;20017;-41
2024/04/10 01:23:02;;;;;;;4.30;1.10;;;16.70;72.00;;;;;;4550652;25;20078;-42
2024/04/10 01:25:45;;;;;;;4.55;1.27;;;16.70;72.00;;;;;;4530541;26;20017;-42
2024/04/10 01:28:26;;;;;;;3.42;0.88;;;16.70;72.20;;;;;;4531097;25;20012;-42
2024/04/10 01:31:09;;;;;;;2.75;0.60;;;16.70;72.20;;;;;;4531155;26;20013;-41
2024/04/10 01:33:49;;;;;;;3.75;0.90;;;16.70;72.30;;;;;;4530942;26;20515;-41
2024/04/10 01:36:32;;;;;;;3.85;0.90;;;16.70;72.20;;;;;;4530574;26;20046;-42
2024/04/10 01:39:16;;;;;;;2.20;0.88;;;16.70;72.20;;;;;;4548219;25;20016;-41
2024/04/10 01:41:59;;;;;;;1.02;0.63;;;16.70;72.30;;;;;;4530936;26;20042;-41
2024/04/10 01:44:42;;;;;;;4.30;0.93;;;16.70;72.40;;;;;;4532280;26;20038;-42
2024/04/10 01:47:22;;;;;;;1.48;0.55;;;16.70;72.40;;;;;;4560967;25;20008;-41
2024/04/10 01:50:06;;;;;;;8.18;1.00;;;16.70;72.50;;;;;;4560244;25;20016;-41
2024/04/10 01:52:46;;;;;;;2.72;0.93;;;16.70;72.50;;;;;;4530956;26;20017;-41
2024/04/10 01:55:32;;;;;;;3.15;0.80;;;16.70;72.30;;;;;;4535193;25;20075;-43
2024/04/10 01:58:12;;;;;;;1.23;0.90;;;16.70;72.10;;;;;;4536764;25;20013;-42
2024/04/10 02:00:54;;;;;;;4.55;0.95;;;16.70;72.10;;;;;;4528834;26;20070;-42
2024/04/10 02:03:35;;;;;;;1.25;0.60;;;16.70;72.00;;;;;;4530734;26;20012;-42
2024/04/10 02:06:18;;;;;;;6.72;1.42;;;16.70;72.10;;;;;;4530095;26;20035;-42
2024/04/10 02:08:58;;;;;;;4.03;0.70;;;16.70;72.20;;;;;;4532432;25;20009;-43
2024/04/10 02:11:43;;;;;;;3.10;0.65;;;16.70;72.30;;;;;;4530425;26;20074;-42
2024/04/10 02:14:23;;;;;;;1.45;0.90;;;16.60;72.10;;;;;;4540353;25;20042;-42
2024/04/10 02:17:06;;;;;;;0.85;0.68;;;16.60;72.00;;;;;;4533811;25;20352;-42
2024/04/10 02:19:49;;;;;;;3.25;0.65;;;16.60;72.20;;;;;;4529059;26;20017;-41
2024/04/10 02:22:32;;;;;;;3.88;0.70;;;16.60;72.10;;;;;;4529186;26;20071;-42
2024/04/10 02:25:13;;;;;;;1.98;0.60;;;16.60;72.00;;;;;;4526094;26;20014;-41
2024/04/10 02:27:58;;;;;;;2.42;0.70;;;16.60;71.90;;;;;;4529461;26;20017;-41
2024/04/10 02:30:38;;;;;;;2.53;0.40;;;16.60;71.90;;;;;;4515200;26;20013;-41
2024/04/10 02:33:21;;;;;;;2.55;0.80;;;16.60;71.80;;;;;;4499231;26;20014;-43
2024/04/10 02:36:02;;;;;;;2.85;0.57;;;16.60;72.20;;;;;;4502494;26;20043;-42
2024/04/10 02:38:45;;;;;;;4.03;0.70;;;16.60;72.50;;;;;;4502427;26;20079;-43
2024/04/10 02:41:25;;;;;;;2.90;0.57;;;16.60;72.50;;;;;;4502096;26;20087;-42
2024/04/10 02:44:10;;;;;;;2.45;1.05;;;16.60;72.70;;;;;;4502290;26;20052;-41
2024/04/10 02:46:51;;;;;;;3.45;0.50;;;16.60;72.70;;;;;;4487740;26;20066;-41
2024/04/10 02:49:34;;;;;;;1.98;0.50;;;16.60;72.90;;;;;;4484461;26;20017;-41
2024/04/10 02:52:14;;;;;;;2.95;0.60;;;16.60;73.00;;;;;;4502063;26;20017;-41
2024/04/10 02:54:57;;;;;;;2.92;0.60;;;16.60;73.00;;;;;;4502096;26;20880;-42
2024/04/10 02:57:37;;;;;;;3.55;0.80;;;16.50;73.10;;;;;;4502358;26;20335;-42
2024/04/10 03:00:22;;;;;;;2.15;0.60;;;16.50;73.00;;;;;;4504074;26;20017;-42
2024/04/10 03:03:03;;;;;;;1.80;0.40;;;16.60;73.10;;;;;;4503077;26;20052;-43
2024/04/10 03:05:47;;;;;;;1.83;0.43;;;16.50;73.20;;;;;;4514366;26;20012;-41
2024/04/10 03:08:28;;;;;;;3.20;0.45;;;16.50;73.10;;;;;;4509109;26;20452;-41
2024/04/10 03:11:13;;;;;;;1.77;0.50;;;16.50;73.20;;;;;;4532010;26;20074;-41
2024/04/10 03:13:54;;;;;;;1.48;0.50;;;16.50;73.20;;;;;;4532039;26;20070;-41
2024/04/10 03:16:39;;;;;;;2.85;0.50;;;16.50;73.40;;;;;;4528595;26;20083;-41
2024/04/10 03:19:21;;;;;;;3.30;0.40;;;16.50;73.30;;;;;;4529593;26;20013;-41
2024/04/10 03:22:04;;;;;;;5.10;0.60;;;16.50;73.40;;;;;;4508629;26;20039;-41
2024/04/10 03:24:44;;;;;;;2.67;0.63;;;16.50;73.30;;;;;;4531282;26;20017;-42
2024/04/10 03:27:26;;;;;;;0.47;0.40;;;16.50;73.40;;;;;;4532152;26;20014;-42
2024/04/10 03:30:07;;;;;;;1.55;0.50;;;16.50;73.50;;;;;;4531547;26;20074;-41
2024/04/10 03:32:53;;;;;;;0.85;0.68;;;16.50;73.50;;;;;;4528826;26;20337;-42
2024/04/10 03:35:33;;;;;;;1.33;0.30;;;16.50;73.50;;;;;;4513218;26;20046;-42
2024/04/10 03:38:16;;;;;;;0.55;0.30;;;16.50;73.60;;;;;;4512843;26;20042;-41
2024/04/10 03:40:56;;;;;;;2.08;0.50;;;16.50;73.60;;;;;;4531792;26;20012;-41
2024/04/10 03:43:39;;;;;;;0.95;0.40;;;16.50;73.70;;;;;;4531639;26;20013;-41
2024/04/10 03:46:21;;;;;;;3.45;0.88;;;16.50;73.70;;;;;;4508227;26;20395;-41
2024/04/10 03:49:07;;;;;;;1.42;0.47;;;16.50;73.90;;;;;;4504146;26;20074;-41
2024/04/10 03:51:59;;;;;;;3.08;0.80;;;16.50;73.90;;;;;;4500820;26;20075;-47
2024/04/10 03:54:41;;;;;;;4.60;0.80;;;16.50;74.00;;;;;;4501283;26;20018;-49
2024/04/10 03:57:23;;;;;;;1.60;0.80;;;16.50;73.90;;;;;;4501254;26;20357;-48
2024/04/10 04:00:07;;;;;;;5.40;0.73;;;16.50;74.00;;;;;;4501151;26;20013;-47
2024/04/10 04:02:52;;;;;;;2.78;0.93;;;16.50;74.10;;;;;;4501112;26;20024;-48
2024/04/10 04:05:38;;;;;;;2.45;0.70;;;16.50;74.10;;;;;;4502860;26;20017;-49
2024/04/10 04:08:20;;;;;;;1.70;0.90;;;16.40;74.10;;;;;;4501025;26;20025;-52
2024/04/10 04:11:04;;;;;;;2.10;0.93;;;16.40;74.10;;;;;;4501455;26;20043;-49
2024/04/10 04:13:45;;;;;;;3.38;1.20;;;16.40;74.10;;;;;;4521291;26;20013;-51
2024/04/10 04:16:29;;;;;;;4.22;1.38;;;16.40;74.20;;;;;;4530712;26;20070;-47
2024/04/10 04:19:10;;;;;;;1.63;1.10;;;16.40;74.20;;;;;;4530726;26;20017;-47
2024/04/10 04:21:56;;;;;;;5.97;1.20;;;16.40;74.10;;;;;;4528512;26;20002;-47
2024/04/10 04:24:36;;;;;;;11.88;1.77;;;16.40;74.10;;;;;;4530819;26;20075;-49
2024/04/10 04:27:19;;;;;;;5.78;1.17;;;16.40;75.10;;;;;;4531237;26;20017;-48
2024/04/10 04:30:01;;;;;;;7.85;1.73;;;16.40;74.20;;;;;;4530771;26;20078;-47
2024/04/10 04:32:44;;;;;;;5.18;1.10;;;16.40;74.20;;;;;;4530919;26;20009;-49
2024/04/10 04:35:25;;;;;;;8.68;2.05;;;16.40;74.10;;;;;;4530640;26;20044;-48
2024/04/10 04:38:10;;;;;;;5.10;1.13;;;16.40;74.20;;;;;;4524726;26;20048;-48
2024/04/10 04:40:51;;;;;;;4.65;1.13;;;16.40;74.20;;;;;;4500685;26;20014;-50
2024/04/10 04:43:34;;;;;;;5.53;1.58;;;16.40;74.10;;;;;;4500894;26;20423;-49
2024/04/10 04:46:17;;;;;;;11.43;1.73;;;16.40;74.10;;;;;;4500841;26;20059;-48
2024/04/10 04:49:00;;;;;;;5.47;1.20;;;16.40;75.10;;;;;;4500320;26;20013;-48
2024/04/10 04:51:40;;;;;;;9.45;1.23;;;16.40;74.20;;;;;;4500297;26;20341;-47
2024/04/10 04:54:25;;;;;;;7.03;1.63;;;16.40;74.20;;;;;;4500844;26;20498;-47
2024/04/10 04:57:09;;;;;;;8.73;1.73;;;16.30;74.10;;;;;;4500858;26;20029;-48
2024/04/10 04:59:51;;;;;;;5.85;1.30;;;16.40;75.30;;;;;;4500236;26;20107;-48
2024/04/10 05:02:32;;;;;;;6.00;1.75;;;16.30;74.20;;;;;;4500280;26;20345;-47
2024/04/10 05:05:15;;;;;;;3.05;1.15;;;16.30;74.10;;;;;;4500527;26;20017;-47
2024/04/10 05:07:58;;;;;;;8.93;1.75;;;16.30;74.10;;;;;;4478712;26;20460;-47
2024/04/10 05:10:44;;;;;;;6.05;1.00;;;16.30;74.10;;;;;;4500437;26;20050;-47
2024/04/10 05:13:24;;;;;;;5.85;1.65;;;16.30;74.00;;;;;;4500349;26;20079;-47
2024/04/10 05:16:10;;;;;;;2.97;1.27;;;16.40;74.70;;;;;;4499357;26;20078;-48
2024/04/10 05:18:51;;;;;;;6.95;1.80;;;16.40;74.80;;;;;;4478415;26;20026;-48
2024/04/10 05:23:06;;;;;;;9.02;1.50;;;16.40;74.70;;;;;;4574005;25;20410;-46
2024/04/10 05:25:49;;;;;;;3.90;1.42;;;16.40;74.90;;;;;;4546497;25;20012;-50
2024/04/10 05:28:31;;;;;;;12.02;1.85;;;16.40;74.90;;;;;;4536767;25;20013;-47
2024/04/10 05:31:12;;;;;;;7.07;1.92;;;16.30;74.90;;;;;;4546553;25;20008;-47
2024/04/10 05:33:55;;;;;;;5.13;1.50;;;16.40;74.90;;;;;;4546711;25;20410;-49
2024/04/10 05:36:35;;;;;;;6.18;1.63;;;16.30;74.80;;;;;;4546068;25;20301;-49
2024/04/10 05:39:23;;;;;;;8.02;1.70;;;16.30;74.80;;;;;;4546457;25;20017;-49
2024/04/10 05:42:07;;;;;;;8.88;1.92;;;16.30;74.60;;;;;;4541228;25;20016;-50
2024/04/10 05:44:51;;;;;;;8.80;2.05;;;16.30;74.80;;;;;;4515782;26;20017;-48
2024/04/10 05:47:31;;;;;;;8.35;2.20;;;16.30;74.90;;;;;;4515896;26;20014;-50
2024/04/10 05:50:14;;;;;;;7.60;1.58;;;16.30;74.90;;;;;;4515899;26;20100;-51
2024/04/10 05:52:57;;;;;;;6.35;1.65;;;16.30;74.90;;;;;;4515258;26;20013;-48
2024/04/10 05:55:42;;;;;;;8.40;2.20;;;16.30;75.00;;;;;;4514117;26;20039;-42
2024/04/10 05:58:24;;;;;;;6.10;2.08;;;16.30;75.00;;;;;;4516104;25;20017;-42
2024/04/10 06:01:07;;;;;;;5.25;1.67;;;16.30;75.00;;;;;;4515934;26;20079;-42
2024/04/10 06:03:51;;;;;;;7.90;1.50;;;16.30;75.00;;;;;;4515544;26;20067;-42
2024/04/10 06:06:32;;;;;;;6.20;1.80;;;16.30;75.00;;;;;;4524559;25;20012;-44
2024/04/10 06:09:15;;;;;;;4.72;1.75;;;16.30;75.10;;;;;;4544283;25;20070;-49
2024/04/10 06:12:01;;;;;;;5.72;1.30;;;16.30;75.20;;;;;;4545788;25;20105;-49
2024/04/10 06:14:41;;;;;;;7.13;1.85;;;16.40;75.30;;;;;;4540808;25;20440;-49
2024/04/10 06:17:26;;;;;;;8.13;1.70;;;16.40;75.00;;;;;;4546490;25;20393;-50
2024/04/10 06:20:11;;;;;;;9.93;1.95;;;16.40;74.90;;;;;;4545838;25;20008;-48
2024/04/10 06:22:54;;;;;;;7.13;2.35;;;16.30;74.90;;;;;;4545786;25;20013;-48
2024/04/10 06:25:34;;;;;;;5.43;1.80;;;16.40;75.80;;;;;;4541252;25;20017;-48
2024/04/10 06:28:20;;;;;;;7.22;2.30;;;16.40;75.00;;;;;;4535158;25;20356;-48
2024/04/10 06:31:01;;;;;;;7.72;1.95;;;16.40;74.90;;;;;;4522956;25;20013;-48
2024/04/10 06:33:45;;;;;;;11.10;1.75;;;16.40;75.00;;;;;;4536116;25;20452;-48
2024/04/10 06:36:28;;;;;;;6.13;2.58;;;16.50;75.00;;;;;;4473913;26;20018;-49
2024/04/10 06:39:10;;;;;;;8.25;3.03;;;16.50;75.10;;;;;;4472937;26;20045;-48
2024/04/10 06:41:52;;;;;;;7.40;2.70;;;16.50;74.90;;;;;;4472600;26;20022;-48
2024/04/10 06:44:36;;;;;;;5.57;1.77;;;16.50;74.70;;;;;;4492010;26;20018;-49
2024/04/10 06:47:19;;;;;;;11.02;2.38;;;16.60;74.70;;;;;;4511142;26;20008;-48
2024/04/10 06:49:59;;;;;;;5.10;1.75;;;16.60;74.60;;;;;;4532801;26;20105;-49
2024/04/10 06:52:42;;;;;;;12.20;2.88;;;16.60;74.50;;;;;;4499466;26;20017;-50
2024/04/10 06:55:22;;;;;;;8.60;2.47;;;16.60;74.20;;;;;;4472860;26;20010;-48
2024/04/10 06:58:05;;;;;;;9.27;2.50;;;16.70;74.30;;;;;;4489353;26;20111;-49
2024/04/10 07:00:57;;;;;;;11.18;2.78;;;16.80;74.40;;;;;;4500947;26;20076;-48
2024/04/10 07:03:42;;;;;;;11.73;2.63;;;16.70;74.00;;;;;;4501411;26;20064;-44
2024/04/10 07:06:22;;;;;;;6.95;2.60;;;16.80;74.30;;;;;;4501976;26;20060;-48
2024/04/10 07:09:08;;;;;;;8.40;2.50;;;16.80;74.40;;;;;;4516113;26;20076;-49
2024/04/10 07:11:50;;;;;;;8.57;2.33;;;16.90;74.30;;;;;;4532652;26;20017;-49
2024/04/10 07:14:35;;;;;;;9.88;2.58;;;16.90;74.00;;;;;;4532438;26;20013;-50
2024/04/10 07:17:18;;;;;;;8.65;2.83;;;16.90;73.90;;;;;;4532628;26;20047;-50
2024/04/10 07:20:01;;;;;;;12.40;3.42;;;17.00;73.90;;;;;;4532249;26;20017;-53
2024/04/10 07:22:41;;;;;;;10.48;3.28;;;17.00;73.90;;;;;;4532213;26;20017;-49
2024/04/10 07:25:27;;;;;;;9.75;2.70;;;17.00;73.70;;;;;;4505841;26;20014;-49
2024/04/10 07:28:07;;;;;;;11.73;3.47;;;17.00;73.60;;;;;;4500203;26;20013;-50
2024/04/10 07:30:51;;;;;;;10.73;2.90;;;17.00;73.40;;;;;;4500478;26;20010;-50
2024/04/10 07:33:33;;;;;;;7.00;2.95;;;17.00;73.40;;;;;;4501072;26;20049;-49
2024/04/10 07:36:18;;;;;;;6.28;2.40;;;17.00;73.30;;;;;;4500914;26;20017;-52
2024/04/10 07:38:59;;;;;;;12.45;3.65;;;17.00;73.20;;;;;;4501916;26;20079;-49
2024/04/10 07:41:43;;;;;;;6.95;2.38;;;17.00;73.00;;;;;;4501523;26;20039;-49
2024/04/10 07:44:24;;;;;;;14.00;3.20;;;17.00;73.00;;;;;;4517418;26;20012;-48
2024/04/10 07:47:07;;;;;;;6.40;2.90;;;17.00;73.30;;;;;;4531802;26;20517;-50
2024/04/10 07:49:51;;;;;;;6.90;2.90;;;17.00;73.20;;;;;;4530758;26;20041;-52
2024/04/10 07:52:34;;;;;;;12.32;3.55;;;17.00;73.10;;;;;;4530561;26;20103;-52
2024/04/10 07:55:15;;;;;;;7.93;3.03;;;17.00;73.20;;;;;;4528976;26;20023;-51
2024/04/10 07:57:58;;;;;;;10.30;3.17;;;17.00;72.90;;;;;;4519016;26;20074;-51
2024/04/10 08:00:38;;;;;;;11.63;3.05;;;17.00;72.70;;;;;;4531131;26;20513;-54
2024/04/10 08:03:22;;;;;;;8.82;2.65;;;17.00;72.50;;;;;;4531606;26;20016;-53
2024/04/10 08:06:07;;;;;;;9.45;2.50;;;17.00;73.30;;;;;;4531113;26;20017;-51
2024/04/10 08:08:50;;;;;;;9.25;2.67;;;17.00;72.50;;;;;;4531890;26;20070;-51
2024/04/10 08:11:30;;;;;;;11.07;3.35;;;17.00;72.30;;;;;;4530086;26;20445;-51
2024/04/10 08:14:13;;;;;;;7.70;2.92;;;17.00;72.20;;;;;;4500200;26;20010;-53
2024/04/10 08:16:54;;;;;;;9.65;2.90;;;17.00;72.20;;;;;;4529102;26;20012;-53
2024/04/10 08:19:36;;;;;;;9.02;3.53;;;17.00;72.10;;;;;;4527141;26;20042;-49
2024/04/10 08:22:19;;;;;;;11.27;3.00;;;17.00;72.90;;;;;;4529107;26;20017;-53
2024/04/10 08:25:03;;;;;;;7.30;2.60;;;17.00;71.90;;;;;;4531237;26;20079;-52
2024/04/10 08:27:43;;;;;;;7.63;2.97;;;17.00;72.10;;;;;;4531039;26;20013;-50
2024/04/10 08:30:26;;;;;;;6.50;2.55;;;17.10;72.30;;;;;;4531276;26;20031;-50
2024/04/10 08:33:06;;;;;;;7.20;2.70;;;17.10;72.10;;;;;;4531585;26;20077;-50
2024/04/10 08:35:55;;;;;;;12.25;3.20;;;17.10;71.70;;;;;;4526343;26;20013;-50
2024/04/10 08:38:37;;;;;;;10.38;3.20;;;17.00;71.60;;;;;;4531271;26;20017;-54
2024/04/10 08:41:22;;;;;;;5.57;2.95;;;17.00;72.60;;;;;;4531512;26;20866;-52
2024/04/10 08:44:03;;;;;;;8.68;3.00;;;17.00;71.70;;;;;;4530850;26;20009;-49
2024/04/10 08:46:49;;;;;;;9.63;2.88;;;17.00;71.80;;;;;;4531272;26;20017;-50
2024/04/10 08:49:30;;;;;;;7.78;3.28;;;17.10;72.00;;;;;;4530825;26;20051;-51
2024/04/10 08:52:15;;;;;;;7.32;2.60;;;17.10;72.10;;;;;;4527412;26;20013;-51
2024/04/10 08:54:59;;;;;;;7.95;2.72;;;17.10;72.20;;;;;;4530826;26;20078;-49
2024/04/10 08:57:42;;;;;;;6.78;3.00;;;17.10;71.90;;;;;;4530473;26;20012;-52
2024/04/10 09:00:22;;;;;;;9.52;3.03;;;17.10;72.00;;;;;;4528780;26;20016;-49
2024/04/10 09:03:06;;;;;;;11.45;3.78;;;17.10;72.00;;;;;;4530405;26;20012;-53
2024/04/10 09:05:46;;;;;;;10.32;3.45;;;17.20;72.10;;;;;;4530859;26;20082;-52
2024/04/10 09:08:29;;;;;;;7.40;2.65;;;17.20;72.10;;;;;;4525414;26;20041;-49
2024/04/10 09:11:11;;;;;;;9.93;2.58;;;17.20;71.80;;;;;;4530599;26;20333;-51
2024/04/10 09:14:03;;;;;;;9.45;3.45;;;17.20;72.10;;;;;;4530882;26;20362;-52
2024/04/10 09:16:44;;;;;;;7.07;2.33;;;17.20;71.90;;;;;;4516994;26;20055;-45
2024/04/10 09:19:28;;;;;;;6.90;2.63;;;17.30;72.20;;;;;;4500635;26;20017;-50
2024/04/10 09:22:11;;;;;;;8.30;2.90;;;17.30;72.80;;;;;;4500133;26;20337;-49
2024/04/10 09:24:54;;;;;;;5.95;2.78;;;17.30;71.70;;;;;;4500790;26;20047;-49
2024/04/10 09:27:37;;;;;;;10.55;3.00;;;17.20;71.80;;;;;;4500516;26;20460;-50
2024/04/10 09:30:20;;;;;;;9.18;2.75;;;17.20;71.90;;;;;;4499924;26;20076;-50
2024/04/10 09:33:01;;;;;;;6.63;2.35;;;17.20;72.80;;;;;;4470216;26;20051;-49
2024/04/10 09:35:44;;;;;;;6.15;2.40;;;17.30;71.80;;;;;;4469974;26;20080;-51
2024/04/10 09:38:25;;;;;;;9.07;3.33;;;17.20;71.60;;;;;;4530135;26;20074;-51
2024/04/10 09:41:11;;;;;;;4.10;2.40;;;17.20;71.30;;;;;;4530158;26;20123;-49
2024/04/10 09:43:55;;;;;;;5.78;1.88;;;17.20;71.70;;;;;;4529755;26;20013;-50
2024/04/10 09:46:40;;;;;;;3.90;2.05;;;17.20;71.70;;;;;;4530127;26;20017;-53
2024/04/10 09:49:25;;;;;;;5.03;2.13;;;17.20;71.50;;;;;;4470367;26;20018;-52
2024/04/10 09:52:11;;;;;;;5.38;1.90;;;17.20;71.50;;;;;;4470349;26;20018;-53
2024/04/10 09:54:52;;;;;;;9.07;2.83;;;17.20;71.70;;;;;;4470169;26;20449;-49
2024/04/10 09:57:35;;;;;;;8.65;2.47;;;17.20;71.50;;;;;;4470664;26;20014;-49
2024/04/10 10:00:18;;;;;;;9.00;2.55;;;17.30;71.40;;;;;;4470083;26;20022;-49
2024/04/10 10:03:08;;;;;;;7.10;2.20;;;17.20;71.30;;;;;;4489629;26;20014;-50
2024/04/10 10:05:59;;;;;;;9.75;2.35;;;17.30;71.20;;;;;;4496821;26;20009;-49
2024/04/10 10:08:51;;;;;;;8.32;2.00;;;17.30;71.50;;;;;;4531188;26;21435;-55
2024/04/10 10:11:31;;;;;;;;;;;17.30;71.60;;;;;;4532981;26;20519;-52
2024/04/10 10:14:17;;;;;;;6.30;2.13;;;17.30;71.80;;;;;;4533006;26;19934;-50
2024/04/10 10:17:09;;;;;;;9.20;2.55;;;17.30;71.90;;;;;;4530066;26;20240;-49
2024/04/10 10:19:53;;;;;;;10.32;2.20;;;17.40;71.40;;;;;;4532054;26;20012;-53
2024/04/10 10:22:33;;;;;;;5.05;2.00;;;17.40;71.80;;;;;;4532521;26;20059;-51
2024/04/10 10:25:16;;;;;;;5.55;2.35;;;17.40;71.70;;;;;;4532676;26;20466;-51
2024/04/10 10:28:04;;;;;;;8.63;2.30;;;17.40;71.30;;;;;;4532494;26;20383;-50
2024/04/10 10:30:46;;;;;;;8.32;2.53;;;17.40;71.30;;;;;;4493210;26;20519;-49
2024/04/10 10:33:29;;;;;;;10.10;2.33;;;17.50;72.00;;;;;;4502915;26;20009;-51
2024/04/10 10:36:13;;;;;;;5.20;1.30;;;17.50;72.00;;;;;;4502028;26;20392;-52
2024/04/10 10:39:00;;;;;;;8.15;2.15;;;17.50;72.00;;;;;;4532647;26;20016;-52
2024/04/10 10:41:43;;;;;;;7.18;2.08;;;17.60;72.10;;;;;;4508719;26;20364;-49
2024/04/10 10:44:23;;;;;;;5.88;1.70;;;17.60;72.30;;;;;;4502204;26;20088;-49
2024/04/10 10:47:11;;;;;;;7.60;2.60;;;17.60;72.10;;;;;;4516570;26;20337;-49
2024/04/10 10:50:03;;;;;;;8.57;2.33;;;17.70;71.80;;;;;;4483230;26;20468;-49
2024/04/10 10:52:47;;;;;;;10.90;2.88;;;17.70;71.40;;;;;;4511508;26;20510;-49
2024/04/10 10:55:27;;;;;;;10.20;2.35;;;17.80;71.40;;;;;;4523554;26;20067;-49
2024/04/10 10:58:10;;;;;;;4.75;2.20;;;17.80;71.30;;;;;;4502157;26;20091;-50
2024/04/10 11:00:50;;;;;;;11.55;2.72;;;17.80;71.20;;;;;;4499044;26;20445;-49
2024/04/10 11:03:33;;;;;;;6.28;1.70;;;17.80;71.20;;;;;;4502095;26;20017;-50
2024/04/10 11:06:16;;;;;;;3.83;1.73;;;17.80;71.80;;;;;;4501960;26;20418;-49
2024/04/10 11:09:09;;;;;;;4.57;2.03;;;17.80;70.60;;;;;;4472204;26;20720;-50
2024/04/10 11:11:57;;;;;;;5.97;2.08;;;17.80;70.20;;;;;;4471455;26;20053;-48
2024/04/10 11:14:40;;;;;;;8.77;2.60;;;17.80;69.80;;;;;;4472839;26;20022;-50
2024/04/10 11:17:21;;;;;;;5.30;1.92;;;17.90;70.10;;;;;;4474597;26;20010;-51
2024/04/10 11:20:06;;;;;;;7.93;2.65;;;17.90;70.10;;;;;;4519119;26;20013;-50
2024/04/10 11:22:49;;;;;;;5.63;1.95;;;17.90;70.70;;;;;;4531266;26;20016;-52
2024/04/10 11:25:32;;;;;;;4.88;1.88;;;17.90;70.80;;;;;;4532228;26;20017;-52
2024/04/10 11:28:12;;;;;;;7.97;2.05;;;17.90;70.70;;;;;;4531888;26;20028;-50
2024/04/10 11:30:55;;;;;;;7.40;2.03;;;18.00;71.10;;;;;;4531644;26;20012;-50
2024/04/10 11:33:35;;;;;;;8.88;2.00;;;18.00;71.00;;;;;;4504633;26;20356;-50
2024/04/10 11:36:18;;;;;;;5.32;1.63;;;18.00;70.90;;;;;;4499138;26;20013;-49
2024/04/10 11:39:01;;;;;;;7.85;1.75;;;18.10;70.00;;;;;;4501647;26;20074;-46
2024/04/10 11:41:44;;;;;;;6.43;2.33;;;18.10;68.90;;;;;;4521176;26;20012;-51
2024/04/10 11:44:25;;;;;;;9.38;1.60;;;18.10;67.70;;;;;;4532014;26;20417;-49
2024/04/10 11:47:09;;;;;;;7.13;2.08;;;18.10;66.90;;;;;;4531637;26;20624;-52
2024/04/10 11:49:49;;;;;;;3.65;1.48;;;18.10;66.40;;;;;;4531825;26;20564;-48
2024/04/10 11:52:32;;;;;;;5.97;2.33;;;18.00;65.70;;;;;;4519897;26;20014;-50
2024/04/10 11:55:17;;;;;;;6.63;2.20;;;18.00;64.00;;;;;;4501578;26;20354;-51
2024/04/10 11:58:00;;;;;;;9.35;2.67;;;18.00;63.70;;;;;;4500043;26;20075;-49
2024/04/10 12:00:40;;;;;;;6.50;1.40;;;18.10;65.10;;;;;;4513731;26;20460;-48
2024/04/10 12:03:23;;;;;;;6.97;1.55;;;18.00;65.00;;;;;;4506365;26;20506;-47
2024/04/10 12:06:04;;;;;;;3.28;1.45;;;18.10;65.90;;;;;;4531284;26;20012;-48
2024/04/10 12:08:47;;;;;;;;;;;18.00;65.50;;;;;;4472758;26;20338;-49
2024/04/10 12:11:31;;;;;;;6.97;1.73;;;18.10;64.80;;;;;;4500366;26;19934;-46
2024/04/10 12:14:14;;;;;;;7.40;2.22;;;18.00;63.80;;;;;;4501310;26;20017;-47
2024/04/10 12:16:54;;;;;;;2.70;1.20;;;18.10;63.00;;;;;;4471943;26;20728;-47
2024/04/10 12:19:37;;;;;;;4.93;1.58;;;18.00;62.50;;;;;;4471459;26;20334;-47
2024/04/10 12:22:20;;;;;;;4.13;1.50;;;18.10;62.50;;;;;;4471456;26;20044;-48
2024/04/10 12:25:01;;;;;;;6.15;2.10;;;18.10;62.40;;;;;;4471639;26;20080;-48
2024/04/10 12:27:48;;;;;;;5.90;1.57;;;18.10;62.50;;;;;;4473264;26;20014;-47
2024/04/10 12:30:28;;;;;;;5.55;1.70;;;18.10;62.40;;;;;;4494694;26;20270;-51
2024/04/10 12:33:11;;;;;;;5.03;1.45;;;18.10;62.50;;;;;;4501120;26;20060;-48
2024/04/10 12:38:58;;;;;;;4.95;1.65;;;18.10;62.90;;;;;;4457533;26;20070;-48
2024/04/10 12:41:41;;;;;;;3.92;1.48;;;18.10;63.20;;;;;;4525406;26;20070;-46
2024/04/10 12:44:27;;;;;;;3.40;1.30;;;18.10;63.10;;;;;;4528019;26;20056;-47
2024/04/10 12:47:10;;;;;;;10.60;2.20;;;18.10;63.10;;;;;;4487511;26;20017;-48
2024/04/10 12:49:51;;;;;;;2.75;1.10;;;18.10;63.30;;;;;;4471141;26;20051;-47
2024/04/10 12:52:34;;;;;;;4.10;1.40;;;18.20;63.30;;;;;;4497489;26;20017;-46
2024/04/10 12:55:14;;;;;;;5.47;1.40;;;18.10;63.40;;;;;;4498536;26;20010;-49
2024/04/10 12:57:57;;;;;;;8.55;2.22;;;18.10;63.10;;;;;;4509396;26;20017;-47
2024/04/10 13:00:40;;;;;;;4.63;1.60;;;18.20;62.40;;;;;;4470895;26;20018;-46
2024/04/10 13:03:23;;;;;;;5.57;1.80;;;18.10;61.90;;;;;;4490500;26;20018;-47
2024/04/10 13:06:07;;;;;;;2.60;1.50;;;18.20;62.50;;;;;;4470594;26;20084;-46
2024/04/10 13:08:50;;;;;;;6.93;1.48;;;18.10;61.70;;;;;;4518249;26;20456;-39
2024/04/10 13:11:30;;;;;;;2.38;1.25;;;18.10;61.50;;;;;;4470346;26;20101;-39
2024/04/10 13:14:13;;;;;;;4.05;1.55;;;18.10;61.70;;;;;;4498939;26;20009;-39
2024/04/10 13:16:59;;;;;;;6.53;1.38;;;18.20;61.50;;;;;;4500472;26;20440;-39
2024/04/10 13:19:39;;;;;;;5.10;1.58;;;18.20;61.10;;;;;;4500557;26;20018;-39
2024/04/10 13:22:24;;;;;;;5.97;1.53;;;18.20;60.50;;;;;;4482058;26;20018;-39
2024/04/10 13:25:06;;;;;;;3.58;1.60;;;18.10;60.50;;;;;;4500530;26;20018;-39
2024/04/10 13:27:48;;;;;;;2.80;0.88;;;18.20;60.30;;;;;;4489781;26;20014;-40
2024/04/10 13:30:29;;;;;;;5.85;1.70;;;18.20;59.90;;;;;;4470316;26;20080;-39
2024/04/10 13:33:15;;;;;;;3.10;1.20;;;18.20;59.70;;;;;;4470404;26;20010;-39
2024/04/10 13:36:03;;;;;;;5.93;1.60;;;18.20;59.50;;;;;;4468967;26;20014;-39
2024/04/10 13:38:48;;;;;;;3.58;1.67;;;18.20;59.20;;;;;;4498966;26;20437;-41
2024/04/10 13:41:28;;;;;;;2.08;1.13;;;18.20;58.80;;;;;;4495326;26;20151;-39
2024/04/10 13:44:12;;;;;;;1.92;1.08;;;18.20;58.60;;;;;;4521153;26;20073;-39
2024/04/10 13:46:52;;;;;;;4.63;1.40;;;18.20;58.60;;;;;;4522966;26;20013;-39
2024/04/10 13:49:37;;;;;;;2.85;1.30;;;18.20;58.50;;;;;;4502437;26;20042;-39
2024/04/10 13:52:17;;;;;;;5.97;1.42;;;18.20;58.40;;;;;;4502685;26;20014;-46
2024/04/10 13:55:00;;;;;;;3.47;1.42;;;18.20;58.10;;;;;;4500655;26;20092;-47
2024/04/10 13:57:41;;;;;;;3.45;1.20;;;18.20;58.20;;;;;;4495813;26;20017;-48
2024/04/10 14:00:23;;;;;;;6.35;1.30;;;18.20;58.20;;;;;;4502929;26;20079;-47
2024/04/10 14:03:05;;;;;;;3.38;1.40;;;18.20;58.20;;;;;;4473046;26;20052;-48
2024/04/10 14:06:00;;;;;;;3.95;1.42;;;18.20;58.00;;;;;;4472970;26;20018;-47
2024/04/10 14:08:42;;;;;;;2.95;1.10;;;18.20;57.70;;;;;;4501800;26;20013;-46
2024/04/10 14:11:24;;;;;;;;;;;18.10;57.60;;;;;;4503436;26;20435;-49